Time;durP1;ratioP1;P1;durP2;ratioP2;P2;SDS_P1;SDS_P2;PMS_P1;PMS_P2;Temp;Humidity;BMP_temperature;BMP_pressure;BME280_temperature;BME280_humidity;BME280_pressure;Samples;Min_cycle;Max_cycle;Signal;HPM_P1;HPM_P2
2021/12/08 00:00:53;;;;;;;;;3.00;2.00;;;;;-149.00;100.00;66333.84;5121064;27;47562;-76
2021/12/08 00:03:20;;;;;;;;;1.00;1.00;;;;;-149.00;100.00;66333.84;5121555;27;45264;-76
2021/12/08 00:05:46;;;;;;;;;3.33;2.00;;;;;-149.00;100.00;66333.84;5121296;27;45401;-76
2021/12/08 00:08:15;;;;;;;;;1.33;1.33;;;;;-149.00;100.00;66333.84;5121093;27;45559;-76
2021/12/08 00:13:27;;;;;;;;;3.00;3.00;;;;;-149.00;100.00;66333.84;5122582;27;45336;-76
2021/12/08 00:15:58;;;;;;;;;2.33;2.33;;;;;-149.00;100.00;66333.84;5120879;27;45296;-76
2021/12/08 00:18:27;;;;;;;;;2.00;2.00;;;;;-149.00;100.00;66333.84;5121055;27;47178;-76
2021/12/08 00:20:56;;;;;;;;;1.50;1.50;;;;;-149.00;100.00;66333.84;5120944;27;45393;-76
2021/12/08 00:23:22;;;;;;;;;3.00;2.33;;;;;-149.00;100.00;66333.84;5120801;27;45350;-76
2021/12/08 00:25:47;;;;;;;;;1.00;1.00;;;;;-149.00;100.00;66333.84;5120852;27;45391;-76
2021/12/08 00:28:15;;;;;;;;;2.33;2.00;;;;;-149.00;100.00;66333.84;5120900;27;45553;-77
2021/12/08 00:30:43;;;;;;;;;4.00;4.00;;;;;-149.00;100.00;66333.84;5120865;27;47431;-76
2021/12/08 00:33:10;;;;;;;;;2.00;2.00;;;;;-149.00;100.00;66333.84;5120734;27;45336;-77
2021/12/08 00:35:36;;;;;;;;;2.67;2.00;;;;;-149.00;100.00;66333.84;5122577;27;45565;-77
2021/12/08 00:38:04;;;;;;;;;3.67;2.00;;;;;-149.00;100.00;66333.84;5121887;27;45453;-77
2021/12/08 00:40:30;;;;;;;;;1.00;1.00;;;;;-149.00;100.00;66333.84;5119163;27;48305;-77
2021/12/08 00:42:56;;;;;;;;;3.67;2.67;;;;;-149.00;100.00;66333.84;5099979;27;46424;-76
2021/12/08 00:45:23;;;;;;;;;4.67;4.00;;;;;-149.00;100.00;66333.84;5101504;27;45157;-77
2021/12/08 00:47:49;;;;;;;;;3.67;3.67;;;;;-149.00;100.00;66333.84;5101334;27;45789;-77
2021/12/08 00:50:17;;;;;;;;;2.00;2.00;;;;;-149.00;100.00;66333.84;5101297;27;45867;-77
2021/12/08 00:52:43;;;;;;;;;4.00;4.00;;;;;-149.00;100.00;66333.84;5101127;27;45255;-76
2021/12/08 00:55:12;;;;;;;;;3.00;3.00;;;;;-149.00;100.00;66333.84;5101378;27;45376;-76
2021/12/08 00:57:37;;;;;;;;;1.00;1.00;;;;;-149.00;100.00;66333.84;5101480;27;45224;-76
2021/12/08 01:00:10;;;;;;;;;1.00;1.00;;;;;-149.00;100.00;66333.84;5101029;27;45248;-76
2021/12/08 01:02:39;;;;;;;;;3.67;2.00;;;;;-149.00;100.00;66333.84;5099733;27;46122;-76
2021/12/08 01:05:09;;;;;;;;;3.67;3.00;;;;;-149.00;100.00;66333.84;5101273;27;45239;-77
2021/12/08 01:07:34;;;;;;;;;1.00;1.00;;;;;-149.00;100.00;66333.84;5100898;27;45356;-77
2021/12/08 01:10:00;;;;;;;;;1.00;1.00;;;;;-149.00;100.00;66333.84;5099651;27;47099;-76
2021/12/08 01:12:25;;;;;;;;;2.33;1.67;;;;;-149.00;100.00;66333.84;5100962;27;45419;-77
2021/12/08 01:14:51;;;;;;;;;2.67;0.67;;;;;-149.00;100.00;66333.84;5099667;27;45318;-76
2021/12/08 01:17:16;;;;;;;;;1.00;1.00;;;;;-149.00;100.00;66333.84;5099500;27;45891;-76
2021/12/08 01:19:41;;;;;;;;;2.00;1.00;;;;;-149.00;100.00;66333.84;5100919;27;46677;-76
2021/12/08 01:22:07;;;;;;;;;1.00;0.00;;;;;-149.00;100.00;66333.84;5100863;27;45240;-76
2021/12/08 01:24:32;;;;;;;;;0.00;0.00;;;;;-149.00;100.00;66333.84;5100734;27;45218;-77
2021/12/08 01:26:58;;;;;;;;;1.00;1.00;;;;;-149.00;100.00;66333.84;5098671;27;46118;-76
2021/12/08 01:29:24;;;;;;;;;0.00;0.00;;;;;-149.00;100.00;66333.84;5100789;27;46207;-75
2021/12/08 01:31:49;;;;;;;;;1.00;1.00;;;;;-149.00;100.00;66333.84;5100758;27;45219;-76
2021/12/08 01:34:15;;;;;;;;;0.00;0.00;;;;;-149.00;100.00;66333.84;5133909;27;45250;-76
2021/12/08 01:36:42;;;;;;;;;2.67;1.33;;;;;-149.00;100.00;66333.84;5100738;27;45428;-76
2021/12/08 01:39:08;;;;;;;;;0.67;0.00;;;;;-149.00;100.00;66333.84;5099006;27;47340;-76
2021/12/08 01:41:35;;;;;;;;;0.00;0.00;;;;;-149.00;100.00;66333.84;5110799;27;45409;-77
2021/12/08 01:46:46;;;;;;;;;0.33;0.33;;;;;-149.00;100.00;66333.84;5120860;27;45258;-76
2021/12/08 01:49:12;;;;;;;;;1.00;1.00;;;;;-149.00;100.00;66333.84;5120921;27;45229;-76
2021/12/08 01:51:38;;;;;;;;;0.33;0.00;;;;;-149.00;100.00;66333.84;5119854;27;45232;-76
2021/12/08 01:54:05;;;;;;;;;0.00;0.00;;;;;-149.00;100.00;66333.84;5120977;27;45285;-77
2021/12/08 01:56:33;;;;;;;;;1.33;0.67;;;;;-149.00;100.00;66333.84;5119763;27;46001;-76
2021/12/08 01:59:00;;;;;;;;;0.00;0.00;;;;;-149.00;100.00;66333.84;5119404;27;48043;-75
2021/12/08 02:01:28;;;;;;;;;0.67;0.00;;;;;-149.00;100.00;66333.84;5120552;27;45332;-76
2021/12/08 02:03:54;;;;;;;;;0.00;0.00;;;;;-149.00;100.00;66333.84;5121055;27;45303;-75
2021/12/08 02:06:21;;;;;;;;;1.67;1.00;;;;;-149.00;100.00;66333.84;5119440;27;46783;-76
2021/12/08 02:08:50;;;;;;;;;1.00;1.00;;;;;-149.00;100.00;66333.84;5120635;27;45494;-76
2021/12/08 02:11:15;;;;;;;;;0.00;0.00;;;;;-149.00;100.00;66333.84;5119544;27;45692;-76
2021/12/08 02:13:41;;;;;;;;;0.00;0.00;;;;;-149.00;100.00;66333.84;5119601;27;45229;-76
2021/12/08 02:16:14;;;;;;;;;0.00;0.00;;;;;-149.00;100.00;66333.84;5119469;27;45819;-76
2021/12/08 02:18:43;;;;;;;;;2.00;0.33;;;;;-149.00;100.00;66333.84;5120633;27;45356;-75
2021/12/08 02:21:37;;;;;;;;;1.00;1.00;;;;;-149.00;100.00;66333.84;5119266;27;46105;-76
2021/12/08 02:24:07;;;;;;;;;3.00;1.00;;;;;-149.00;100.00;66333.84;5120522;27;45273;-76
2021/12/08 02:26:33;;;;;;;;;0.00;0.00;;;;;-149.00;100.00;66333.84;5120760;27;45332;-75
2021/12/08 02:29:03;;;;;;;;;2.00;0.33;;;;;-149.00;100.00;66333.84;5120465;27;45422;-75
2021/12/08 02:32:12;;;;;;;;;2.00;1.00;;;;;-149.00;100.00;66333.84;5120819;27;45351;-76
2021/12/08 02:47:58;;;;;;;;;2.00;0.33;;;;;-149.00;100.00;66333.84;5103038;27;45231;-75
2021/12/08 02:50:39;;;;;;;;;2.00;0.67;;;;;-149.00;100.00;66333.84;5136312;27;47356;-77
2021/12/08 02:53:07;;;;;;;;;0.00;0.00;;;;;-149.00;100.00;66333.84;5101771;27;45318;-76
2021/12/08 02:55:33;;;;;;;;;0.00;0.00;;;;;-149.00;100.00;66333.84;5101909;27;45263;-75
2021/12/08 02:58:01;;;;;;;;;0.67;0.67;;;;;-149.00;100.00;66333.84;5103165;27;45258;-76
2021/12/08 03:00:31;;;;;;;;;0.33;0.33;;;;;-149.00;100.00;66333.84;5101619;27;47157;-76
2021/12/08 03:02:58;;;;;;;;;1.00;1.00;;;;;-149.00;100.00;66333.84;5104644;27;45261;-76
2021/12/08 03:05:25;;;;;;;;;0.00;0.00;;;;;-149.00;100.00;66333.84;5101825;27;45263;-76
2021/12/08 03:07:51;;;;;;;;;0.00;0.00;;;;;-149.00;100.00;66333.84;5101339;27;46670;-76
2021/12/08 03:10:22;;;;;;;;;1.00;0.00;;;;;-149.00;100.00;66333.84;5136132;27;47092;-76
2021/12/08 03:12:48;;;;;;;;;1.00;0.00;;;;;-149.00;100.00;66333.84;5101453;27;45295;-75
2021/12/08 03:15:14;;;;;;;;;4.00;4.00;;;;;-149.00;100.00;66333.84;5103138;27;45210;-76
2021/12/08 03:17:41;;;;;;;;;0.00;0.00;;;;;-149.00;100.00;66333.84;5101566;27;46091;-76
2021/12/08 03:20:09;;;;;;;;;1.67;1.00;;;;;-149.00;100.00;66333.84;5102783;27;45611;-76
2021/12/08 03:22:40;;;;;;;;;0.00;0.00;;;;;-149.00;100.00;66333.84;5102398;27;45393;-76
2021/12/08 03:25:08;;;;;;;;;0.33;0.33;;;;;-149.00;100.00;66333.84;5102912;27;45285;-75
2021/12/08 03:27:38;;;;;;;;;0.00;0.00;;;;;-149.00;100.00;66333.84;5102776;27;45403;-75
2021/12/08 03:30:18;;;;;;;;;2.33;1.00;;;;;-149.00;100.00;66333.84;5101104;27;47344;-75
2021/12/08 03:32:44;;;;;;;;;2.00;1.00;;;;;-149.00;100.00;66333.84;5102260;27;45405;-76
2021/12/08 03:35:15;;;;;;;;;0.00;0.00;;;;;-149.00;100.00;66333.84;5102715;27;45358;-75
2021/12/08 03:37:44;;;;;;;;;0.00;0.00;;;;;-149.00;100.00;66333.84;5102454;27;46596;-75
2021/12/08 03:40:15;;;;;;;;;1.33;0.67;;;;;-149.00;100.00;66333.84;5101022;27;47602;-75
2021/12/08 03:42:42;;;;;;;;;0.67;0.67;;;;;-149.00;100.00;66333.84;5121965;27;45309;-76
2021/12/08 03:45:12;;;;;;;;;3.00;1.00;;;;;-149.00;100.00;66333.84;5121853;27;45304;-76
2021/12/08 03:47:42;;;;;;;;;3.00;2.00;;;;;-149.00;100.00;66333.84;5122919;27;45445;-76
2021/12/08 03:50:12;;;;;;;;;0.00;0.00;;;;;-149.00;100.00;66333.84;5120680;27;47083;-76
2021/12/08 03:52:39;;;;;;;;;1.00;0.00;;;;;-149.00;100.00;66333.84;5122805;27;45222;-76
2021/12/08 03:55:06;;;;;;;;;0.67;0.67;;;;;-149.00;100.00;66333.84;5121704;27;45176;-76
2021/12/08 03:57:32;;;;;;;;;0.00;0.00;;;;;-149.00;100.00;66333.84;5121374;27;47579;-75
2021/12/08 03:59:58;;;;;;;;;2.00;2.00;;;;;-149.00;100.00;66333.84;5121158;27;47189;-75
2021/12/08 04:02:23;;;;;;;;;2.00;0.67;;;;;-149.00;100.00;66333.84;5122679;27;45395;-76
2021/12/08 04:04:50;;;;;;;;;1.00;1.00;;;;;-149.00;100.00;66333.84;5121457;27;45368;-76
2021/12/08 04:07:18;;;;;;;;;0.33;0.33;;;;;-149.00;100.00;66333.84;5122774;27;45214;-76
2021/12/08 04:09:47;;;;;;;;;1.00;0.00;;;;;-149.00;100.00;66333.84;5121178;27;48146;-76
2021/12/08 04:12:15;;;;;;;;;2.67;1.00;;;;;-149.00;100.00;66333.84;5121317;27;45268;-76
2021/12/08 04:14:57;;;;;;;;;0.00;0.00;;;;;-149.00;100.00;66333.84;5122602;27;45332;-75
2021/12/08 04:17:27;;;;;;;;;1.33;1.00;;;;;-149.00;100.00;66333.84;5122470;27;45525;-76
2021/12/08 04:19:55;;;;;;;;;1.00;1.00;;;;;-149.00;100.00;66333.84;5122367;27;45597;-76
2021/12/08 04:22:28;;;;;;;;;1.00;1.00;;;;;-149.00;100.00;66333.84;5122234;27;45293;-75
2021/12/08 04:24:55;;;;;;;;;1.00;1.00;;;;;-149.00;100.00;66333.84;5138700;27;45264;-75
2021/12/08 04:27:28;;;;;;;;;1.33;1.00;;;;;-149.00;100.00;66333.84;5122480;27;45237;-75
2021/12/08 04:29:53;;;;;;;;;0.00;0.00;;;;;-149.00;100.00;66333.84;5120885;27;46880;-76
2021/12/08 04:32:23;;;;;;;;;1.00;1.00;;;;;-149.00;100.00;66333.84;5122153;27;45268;-75
2021/12/08 04:34:52;;;;;;;;;1.00;1.00;;;;;-149.00;100.00;66333.84;5121003;27;45307;-75
2021/12/08 04:37:27;;;;;;;;;0.33;0.33;;;;;-149.00;100.00;66333.84;5122146;27;45237;-75
2021/12/08 04:40:26;;;;;;;;;0.00;0.00;;;;;-149.00;100.00;66333.84;5122140;27;46421;-75
2021/12/08 04:45:38;;;;;;;;;1.00;1.00;;;;;-149.00;100.00;66333.84;5081089;27;45203;-76
2021/12/08 04:51:31;;;;;;;;;4.00;1.00;;;;;-149.00;100.00;66333.84;5080857;27;46145;-76
2021/12/08 05:07:37;;;;;;;;;1.67;1.67;;;;;-149.00;100.00;66333.84;5080527;27;45284;-75
2021/12/08 05:10:16;;;;;;;;;0.33;0.33;;;;;-149.00;100.00;66333.84;5080494;27;45349;-76
2021/12/08 05:12:44;;;;;;;;;2.67;2.00;;;;;-149.00;100.00;66333.84;5080471;28;45518;-75
2021/12/08 05:15:17;;;;;;;;;1.00;1.00;;;;;-149.00;100.00;66333.84;5080550;28;45224;-75
2021/12/08 05:17:59;;;;;;;;;1.00;1.00;;;;;-149.00;100.00;66333.84;5080813;27;45214;-76
2021/12/08 05:20:43;;;;;;;;;2.00;2.00;;;;;-149.00;100.00;66333.84;5078876;28;46065;-75
2021/12/08 05:23:14;;;;;;;;;1.00;1.00;;;;;-149.00;100.00;66333.84;5080233;28;45404;-76
2021/12/08 05:25:43;;;;;;;;;4.00;2.00;;;;;-149.00;100.00;66333.84;5080485;28;45275;-76
2021/12/08 05:28:14;;;;;;;;;1.67;1.67;;;;;-149.00;100.00;66333.84;5080672;28;45374;-76
2021/12/08 05:31:11;;;;;;;;;2.00;2.00;;;;;-149.00;100.00;66333.84;5095875;27;45556;-76
2021/12/08 05:33:41;;;;;;;;;2.00;2.00;;;;;-149.00;100.00;66333.84;5075490;28;45358;-75
2021/12/08 05:36:08;;;;;;;;;1.67;1.67;;;;;-149.00;100.00;66333.84;5080356;28;45219;-76
2021/12/08 05:38:33;;;;;;;;;2.67;1.00;;;;;-149.00;100.00;66333.84;5078948;28;45351;-76
2021/12/08 05:41:13;;;;;;;;;4.33;3.00;;;;;-149.00;100.00;66333.84;5092007;27;45547;-76
2021/12/08 05:43:38;;;;;;;;;2.33;2.00;;;;;-149.00;100.00;66333.84;5120392;27;48694;-75
2021/12/08 05:46:05;;;;;;;;;1.67;1.00;;;;;-149.00;100.00;66333.84;5119939;27;45279;-75
2021/12/08 05:48:32;;;;;;;;;1.00;0.00;;;;;-149.00;100.00;66333.84;5120217;27;45454;-76
2021/12/08 05:51:09;;;;;;;;;0.67;0.67;;;;;-149.00;100.00;66333.84;5119670;27;45494;-75
2021/12/08 05:53:38;;;;;;;;;3.33;1.67;;;;;-149.00;100.00;66333.84;5120657;27;45621;-76
2021/12/08 05:56:05;;;;;;;;;1.67;1.67;;;;;-149.00;100.00;66333.84;5120955;27;45375;-77
2021/12/08 05:58:32;;;;;;;;;1.00;1.00;;;;;-149.00;100.00;66333.84;5120968;27;45376;-76
2021/12/08 06:01:04;;;;;;;;;1.67;1.67;;;;;-149.00;100.00;66333.84;5119404;27;47070;-76
2021/12/08 06:03:31;;;;;;;;;1.00;1.00;;;;;-149.00;100.00;66333.84;5120649;27;45409;-75
2021/12/08 06:05:58;;;;;;;;;1.00;1.00;;;;;-149.00;100.00;66333.84;5119477;27;45248;-75
2021/12/08 06:08:27;;;;;;;;;3.00;0.00;;;;;-149.00;100.00;66333.84;5119260;27;45410;-76
2021/12/08 06:10:53;;;;;;;;;3.67;2.00;;;;;-149.00;100.00;66333.84;5119557;27;46282;-76
2021/12/08 06:13:18;;;;;;;;;1.00;1.00;;;;;-149.00;100.00;66333.84;5121467;27;47706;-77
2021/12/08 06:15:49;;;;;;;;;39.50;35.75;;;;;-149.00;100.00;66333.84;5123883;27;45269;-75
2021/12/08 06:18:20;;;;;;;;;3.00;3.00;;;;;-149.00;100.00;66333.84;5123137;27;45203;-76
2021/12/08 06:20:46;;;;;;;;;2.00;1.00;;;;;-149.00;100.00;66333.84;5123302;27;47375;-76
2021/12/08 06:23:12;;;;;;;;;0.67;0.00;;;;;-149.00;100.00;66333.84;5123182;27;46255;-76
2021/12/08 06:25:38;;;;;;;;;2.67;2.67;;;;;-149.00;100.00;66333.84;5123036;27;45290;-76
2021/12/08 06:28:04;;;;;;;;;2.00;2.00;;;;;-149.00;100.00;66333.84;5123078;27;45302;-76
2021/12/08 06:30:33;;;;;;;;;3.00;1.00;;;;;-149.00;100.00;66333.84;5124232;27;45478;-78
2021/12/08 06:32:59;;;;;;;;;0.67;0.33;;;;;-149.00;100.00;66333.84;5123533;27;47182;-78
2021/12/08 06:35:42;;;;;;;;;1.67;1.67;;;;;-149.00;100.00;66333.84;5123845;27;46152;-77
2021/12/08 06:38:09;;;;;;;;;2.00;1.00;;;;;-149.00;100.00;66333.84;5124036;27;45326;-78
2021/12/08 06:40:40;;;;;;;;;1.67;1.00;;;;;-149.00;100.00;66333.84;5122726;27;45449;-77
2021/12/08 06:43:09;;;;;;;;;3.67;3.67;;;;;-149.00;100.00;66333.84;5102580;27;48031;-75
2021/12/08 06:45:38;;;;;;;;;3.67;1.00;;;;;-149.00;100.00;66333.84;5102044;27;45694;-75
2021/12/08 06:48:14;;;;;;;;;0.00;0.00;;;;;-149.00;100.00;66333.84;5102014;27;45184;-77
2021/12/08 06:50:45;;;;;;;;;2.33;2.33;;;;;-149.00;100.00;66333.84;5103906;27;45243;-76
2021/12/08 06:53:11;;;;;;;;;2.00;2.00;;;;;-149.00;100.00;66333.84;5105117;27;45470;-77
2021/12/08 06:55:46;;;;;;;;;8.00;2.00;;;;;-149.00;100.00;66333.84;5105597;27;45229;-77
2021/12/08 06:58:18;;;;;;;;;2.00;2.00;;;;;-149.00;100.00;66333.84;5104362;27;45287;-75
2021/12/08 07:01:20;;;;;;;;;9.00;8.33;;;;;-149.00;100.00;66333.84;5102685;27;45286;-77
2021/12/08 07:06:43;;;;;;;;;3.00;3.00;;;;;-149.00;100.00;66333.84;5102633;27;45311;-76
2021/12/08 07:09:14;;;;;;;;;3.00;3.00;;;;;-149.00;100.00;66333.84;5101372;27;45524;-76
2021/12/08 07:11:40;;;;;;;;;2.00;2.00;;;;;-149.00;100.00;66333.84;5101463;27;46740;-76
2021/12/08 07:14:05;;;;;;;;;3.67;2.00;;;;;-149.00;100.00;66333.84;5101725;27;46715;-78
2021/12/08 07:16:37;;;;;;;;;4.00;3.00;;;;;-149.00;100.00;66333.84;5100903;27;45576;-79
2021/12/08 07:19:34;;;;;;;;;3.00;3.00;;;;;-149.00;100.00;66333.84;5102838;27;45332;-79
2021/12/08 07:22:04;;;;;;;;;2.00;2.00;;;;;-149.00;100.00;66333.84;5100771;27;46887;-78
2021/12/08 07:24:34;;;;;;;;;2.33;2.00;;;;;-149.00;100.00;66333.84;5100231;27;45553;-79
2021/12/08 07:27:05;;;;;;;;;2.00;2.00;;;;;-149.00;100.00;66333.84;5100932;27;45240;-78
2021/12/08 07:29:36;;;;;;;;;4.00;4.00;;;;;-149.00;100.00;66333.84;5103307;27;45287;-75
2021/12/08 07:32:08;;;;;;;;;5.00;5.00;;;;;-149.00;100.00;66333.84;5103027;27;45410;-77
2021/12/08 07:34:35;;;;;;;;;3.00;3.00;;;;;-149.00;100.00;66333.84;5101733;27;46411;-75
2021/12/08 07:37:09;;;;;;;;;2.00;2.00;;;;;-149.00;100.00;66333.84;5101004;27;45400;-75
2021/12/08 07:39:42;;;;;;;;;1.67;1.67;;;;;-149.00;100.00;66333.84;5103083;27;45254;-76
2021/12/08 07:42:16;;;;;;;;;3.00;2.67;;;;;-149.00;100.00;66333.84;5115873;27;46139;-77
2021/12/08 07:44:43;;;;;;;;;5.67;4.00;;;;;-149.00;100.00;66333.84;5104093;27;45490;-77
2021/12/08 07:47:11;;;;;;;;;6.67;5.67;;;;;-149.00;100.00;66333.84;5099621;27;46240;-77
2021/12/08 07:49:53;;;;;;;;;2.00;2.00;;;;;-149.00;100.00;66333.84;5100456;27;45408;-77
2021/12/08 07:52:23;;;;;;;;;2.67;2.67;;;;;-149.00;100.00;66333.84;5100343;27;45631;-77
2021/12/08 07:54:50;;;;;;;;;3.33;3.33;;;;;-149.00;100.00;66333.84;5100479;27;48170;-76
2021/12/08 07:57:30;;;;;;;;;7.33;7.33;;;;;-149.00;100.00;66333.84;5101139;27;45829;-75
2021/12/08 08:00:00;;;;;;;;;4.33;3.00;;;;;-149.00;100.00;66333.84;5100221;27;45335;-75
2021/12/08 08:02:27;;;;;;;;;4.00;4.00;;;;;-149.00;100.00;66333.84;5100205;27;45491;-75
2021/12/08 08:04:58;;;;;;;;;2.00;2.00;;;;;-149.00;100.00;66333.84;5101691;27;45237;-75
2021/12/08 08:07:23;;;;;;;;;5.33;3.00;;;;;-149.00;100.00;66333.84;5100369;27;45332;-75
2021/12/08 08:09:59;;;;;;;;;3.00;3.00;;;;;-149.00;100.00;66333.84;5100664;27;45253;-75
2021/12/08 08:12:30;;;;;;;;;3.00;2.33;;;;;-149.00;100.00;66333.84;5099807;27;47344;-74
2021/12/08 08:15:00;;;;;;;;;6.00;4.00;;;;;-149.00;100.00;66333.84;5097649;27;47102;-75
2021/12/08 08:17:34;;;;;;;;;2.33;2.00;;;;;-149.00;100.00;66333.84;5099634;27;45583;-74
2021/12/08 08:20:04;;;;;;;;;4.33;4.00;;;;;-149.00;100.00;66333.84;5115687;27;45470;-75
2021/12/08 08:22:30;;;;;;;;;5.00;5.00;;;;;-149.00;100.00;66333.84;5099772;27;47366;-75
2021/12/08 08:24:58;;;;;;;;;3.33;2.00;;;;;-149.00;100.00;66333.84;5100978;27;46748;-80
2021/12/08 08:27:25;;;;;;;;;2.00;2.00;;;;;-149.00;100.00;66333.84;5101807;27;45397;-82
2021/12/08 08:29:54;;;;;;;;;3.33;3.00;;;;;-149.00;100.00;66333.84;5101992;27;45396;-81
2021/12/08 08:32:29;;;;;;;;;4.67;4.00;;;;;-149.00;100.00;66333.84;5101267;27;45286;-80
2021/12/08 08:35:04;;;;;;;;;2.67;2.67;;;;;-149.00;100.00;66333.84;5099938;27;46039;-80
2021/12/08 08:37:31;;;;;;;;;3.67;3.67;;;;;-149.00;100.00;66333.84;5099263;27;45697;-81
2021/12/08 08:40:00;;;;;;;;;8.33;5.33;;;;;-149.00;100.00;66333.84;5100463;27;45375;-79
2021/12/08 08:42:32;;;;;;;;;5.33;5.33;;;;;-149.00;100.00;66333.84;5100662;27;46338;-80
2021/12/08 08:45:11;;;;;;;;;9.00;7.00;;;;;-149.00;100.00;66333.84;5099895;27;48441;-79
2021/12/08 08:47:47;;;;;;;;;8.00;7.67;;;;;-149.00;100.00;66333.84;5101551;27;45302;-80
2021/12/08 08:50:28;;;;;;;;;5.00;5.00;;;;;-149.00;100.00;66333.84;5111144;27;45351;-80
2021/12/08 08:52:58;;;;;;;;;7.67;7.33;;;;;-149.00;100.00;66333.84;5119759;27;45489;-80
2021/12/08 08:55:34;;;;;;;;;9.00;6.33;;;;;-149.00;100.00;66333.84;5121478;27;45260;-80
2021/12/08 08:58:02;;;;;;;;;2.00;2.00;;;;;-149.00;100.00;66333.84;5120260;27;45700;-81
2021/12/08 09:00:43;;;;;;;;;2.33;2.00;;;;;-149.00;100.00;66333.84;5120479;27;45505;-80
2021/12/08 09:03:17;;;;;;;;;3.00;2.00;;;;;-149.00;100.00;66333.84;5119839;27;46473;-80
2021/12/08 09:05:52;;;;;;;;;3.00;3.00;;;;;-149.00;100.00;66333.84;5120013;27;47076;-79
2021/12/08 09:08:20;;;;;;;;;3.67;3.67;;;;;-149.00;100.00;66333.84;5120018;27;45217;-80
2021/12/08 09:10:58;;;;;;;;;2.00;2.00;;;;;-149.00;100.00;66333.84;5120297;27;45318;-79
2021/12/08 09:13:49;;;;;;;;;2.33;2.00;;;;;-149.00;100.00;66333.84;5121535;27;45606;-80
2021/12/08 09:16:21;;;;;;;;;5.00;4.00;;;;;-149.00;100.00;66333.84;5109139;27;47247;-80
2021/12/08 09:19:10;;;;;;;;;3.00;3.00;;;;;-149.00;100.00;66333.84;5121825;27;45398;-81
2021/12/08 09:21:49;;;;;;;;;5.00;5.00;;;;;-149.00;100.00;66333.84;5120213;27;45280;-81
2021/12/08 09:24:23;;;;;;;;;3.00;3.00;;;;;-149.00;100.00;66333.84;5120010;27;47048;-81
2021/12/08 09:26:54;;;;;;;;;2.67;2.00;;;;;-149.00;100.00;66333.84;5121571;27;46308;-82
2021/12/08 09:29:28;;;;;;;;;2.67;2.67;;;;;-149.00;100.00;66333.84;5119956;27;45245;-81
2021/12/08 09:32:08;;;;;;;;;1.00;1.00;;;;;-149.00;100.00;66333.84;5121677;27;45446;-80
2021/12/08 09:34:45;;;;;;;;;4.33;3.00;;;;;-149.00;100.00;66333.84;5121529;27;45303;-80
2021/12/08 09:37:19;;;;;;;;;5.00;2.33;;;;;-149.00;100.00;66333.84;5103756;27;47481;-79
2021/12/08 09:39:54;;;;;;;;;4.00;2.00;;;;;-149.00;100.00;66333.84;5123364;27;45349;-79
2021/12/08 09:42:41;;;;;;;;;3.00;3.00;;;;;-149.00;100.00;66333.84;5105155;27;45425;-80
2021/12/08 09:45:16;;;;;;;;;3.67;3.67;;;;;-149.00;100.00;66333.84;5100503;27;45255;-80
2021/12/08 09:47:42;;;;;;;;;1.67;1.00;;;;;-149.00;100.00;66333.84;5098415;27;47709;-80
2021/12/08 09:50:11;;;;;;;;;4.33;3.67;;;;;-149.00;100.00;66333.84;5099111;27;45304;-80
2021/12/08 09:52:37;;;;;;;;;4.00;4.00;;;;;-149.00;100.00;66333.84;5098922;27;45292;-81
2021/12/08 09:55:05;;;;;;;;;3.33;3.00;;;;;-149.00;100.00;66333.84;5099073;27;46182;-81
2021/12/08 09:57:31;;;;;;;;;3.00;3.00;;;;;-149.00;100.00;66333.84;5100496;27;45364;-80
2021/12/08 09:59:57;;;;;;;;;5.67;5.00;;;;;-149.00;100.00;66333.84;5100490;27;45334;-81
2021/12/08 10:02:27;;;;;;;;;5.33;4.00;;;;;-149.00;100.00;66333.84;5100332;27;45329;-81
2021/12/08 10:04:56;;;;;;;;;2.67;2.67;;;;;-149.00;100.00;66333.84;5099077;27;46307;-81
2021/12/08 10:07:22;;;;;;;;;4.00;4.00;;;;;-149.00;100.00;66333.84;5098522;27;47507;-81
2021/12/08 10:09:50;;;;;;;;;3.00;3.00;;;;;-149.00;100.00;66333.84;5098731;27;45321;-81
2021/12/08 10:12:16;;;;;;;;;2.00;2.00;;;;;-149.00;100.00;66333.84;5100359;27;45322;-81
2021/12/08 10:14:42;;;;;;;;;4.33;4.00;;;;;-149.00;100.00;66333.84;5099892;27;45460;-79
2021/12/08 10:17:07;;;;;;;;;3.00;3.00;;;;;-149.00;100.00;66333.84;5100006;27;46260;-80
2021/12/08 10:19:33;;;;;;;;;4.00;4.00;;;;;-149.00;100.00;66333.84;5099945;27;45357;-81
2021/12/08 10:21:59;;;;;;;;;3.67;3.67;;;;;-149.00;100.00;66333.84;5099868;27;45343;-79
2021/12/08 10:24:27;;;;;;;;;10.00;7.67;;;;;-149.00;100.00;66333.84;5112343;27;46041;-76
2021/12/08 10:27:02;;;;;;;;;4.00;4.00;;;;;-149.00;100.00;66333.84;5118741;27;47430;-77
2021/12/08 10:29:30;;;;;;;;;5.33;4.33;;;;;-149.00;100.00;66333.84;5119029;27;46051;-76
2021/12/08 10:31:56;;;;;;;;;3.33;3.33;;;;;-149.00;100.00;66333.84;5120659;27;45237;-77
2021/12/08 10:34:29;;;;;;;;;5.67;4.33;;;;;-149.00;100.00;66333.84;5120234;27;45477;-78
2021/12/08 10:36:58;;;;;;;;;4.00;4.00;;;;;-149.00;100.00;66333.84;5120024;27;45487;-78
2021/12/08 10:39:46;;;;;;;;;5.00;5.00;;;;;-149.00;100.00;66333.84;5120251;27;45347;-78
2021/12/08 10:42:18;;;;;;;;;6.00;3.67;;;;;-149.00;100.00;66333.84;5119748;27;45214;-78
2021/12/08 10:47:37;;;;;;;;;4.00;4.00;;;;;-149.00;100.00;66333.84;5120030;27;45862;-77
2021/12/08 10:55:39;;;;;;;;;4.33;3.33;;;;;-149.00;100.00;66333.84;5120007;27;45309;-76
2021/12/08 10:58:06;;;;;;;;;5.33;3.33;;;;;-149.00;100.00;66333.84;5120130;27;45385;-76
2021/12/08 11:00:39;;;;;;;;;4.00;4.00;;;;;-149.00;100.00;66333.84;5121241;27;45378;-75
2021/12/08 11:03:14;;;;;;;;;4.00;4.00;;;;;-149.00;100.00;66333.84;5123721;27;45316;-76
2021/12/08 11:05:48;;;;;;;;;7.33;4.00;;;;;-149.00;100.00;66333.84;5121970;27;46266;-79
2021/12/08 11:08:22;;;;;;;;;4.67;4.67;;;;;-149.00;100.00;66333.84;5123211;27;45628;-80
2021/12/08 11:11:05;;;;;;;;;5.33;4.00;;;;;-149.00;100.00;66333.84;5119472;27;45271;-81
2021/12/08 11:13:35;;;;;;;;;5.00;5.00;;;;;-149.00;100.00;66333.84;5123476;27;45336;-79
2021/12/08 11:16:23;;;;;;;;;5.00;4.00;;;;;-149.00;100.00;66333.84;5122132;27;47461;-79
2021/12/08 11:21:48;;;;;;;;;6.00;4.00;;;;;-149.00;100.00;66333.84;5108233;27;45329;-78
2021/12/08 11:24:30;;;;;;;;;3.33;3.33;;;;;-149.00;100.00;66333.84;5123724;27;45277;-79
2021/12/08 11:26:57;;;;;;;;;3.00;3.00;;;;;-149.00;100.00;66333.84;5125227;27;45660;-79
2021/12/08 11:29:24;;;;;;;;;8.67;4.33;;;;;-149.00;100.00;66333.84;5123742;27;45492;-79
2021/12/08 11:32:02;;;;;;;;;4.00;4.00;;;;;-149.00;100.00;66333.84;5122833;27;45955;-79
2021/12/08 11:34:30;;;;;;;;;3.33;3.00;;;;;-149.00;100.00;66333.84;5124743;27;45316;-79
2021/12/08 11:37:00;;;;;;;;;4.67;4.67;;;;;-149.00;100.00;66333.84;5124386;27;45405;-79
2021/12/08 11:39:35;;;;;;;;;3.67;3.00;;;;;-149.00;100.00;66333.84;5121931;27;48229;-81
2021/12/08 11:42:06;;;;;;;;;6.33;5.00;;;;;-149.00;100.00;66333.84;5123825;27;45455;-80
2021/12/08 11:44:34;;;;;;;;;5.67;5.67;;;;;-149.00;100.00;66333.84;5123802;27;45195;-79
2021/12/08 11:47:22;;;;;;;;;7.00;6.00;;;;;-149.00;100.00;66333.84;5121878;27;46182;-81
2021/12/08 11:49:52;;;;;;;;;4.00;4.00;;;;;-149.00;100.00;66333.84;5122954;27;47315;-82
2021/12/08 11:52:23;;;;;;;;;3.33;3.33;;;;;-149.00;100.00;66333.84;5119709;27;45299;-80
2021/12/08 11:55:09;;;;;;;;;5.00;4.00;;;;;-149.00;100.00;66333.84;5122570;27;45309;-81
2021/12/08 11:57:42;;;;;;;;;6.00;5.33;;;;;-149.00;100.00;66333.84;5122682;27;45546;-81
2021/12/08 12:00:17;;;;;;;;;4.00;3.00;;;;;-149.00;100.00;66333.84;5121007;27;47067;-81
2021/12/08 12:02:57;;;;;;;;;2.00;2.00;;;;;-149.00;100.00;66333.84;5122578;27;45356;-79
2021/12/08 12:05:28;;;;;;;;;4.00;4.00;;;;;-149.00;100.00;66333.84;5122714;27;45238;-80
2021/12/08 12:07:55;;;;;;;;;4.00;4.00;;;;;-149.00;100.00;66333.84;5120868;27;46855;-81
2021/12/08 12:10:24;;;;;;;;;3.33;3.00;;;;;-149.00;100.00;66333.84;5120925;27;47001;-81
2021/12/08 12:12:51;;;;;;;;;4.67;4.00;;;;;-149.00;100.00;66333.84;5122271;27;45288;-81
2021/12/08 12:15:18;;;;;;;;;4.33;3.33;;;;;-149.00;100.00;66333.84;5122479;27;45539;-80
2021/12/08 12:17:47;;;;;;;;;3.00;3.00;;;;;-149.00;100.00;66333.84;5120814;27;46168;-79